Aviation Digital Data Service (ADDS)

Output produced by METARs form (0511 UTC 16 February 2019)
found at http://www.aviationweather.gov/metar/data/
 
METAR text: SCFA 160500Z 26001KT 9999 OVC038 20/13 Q1016 NOSIG
Conditions at: SCFA (ANTOFAGASTA/CERR, CL) observed 0500 UTC 16 February 2019
Temperature: 20.0°C (68°F)
Dewpoint: 13.0°C (55°F) [RH = 64%]
Pressure (altimeter): 30.00 inches Hg (1016.0 mb)
Winds: from the W (260 degrees) at 1 MPH (1 knots; 0.5 m/s)
Visibility: 6 or more miles (10+ km)
Ceiling: 3800 feet AGL
Clouds: overcast cloud deck at 3800 feet AGL
Weather: no significant weather observed at this time

METAR text: SCFA 160400Z 29002KT 9999 OVC038 20/13 Q1016 NOSIG
Conditions at: SCFA (ANTOFAGASTA/CERR, CL) observed 0400 UTC 16 February 2019
Temperature: 20.0°C (68°F)
Dewpoint: 13.0°C (55°F) [RH = 64%]
Pressure (altimeter): 30.00 inches Hg (1016.0 mb)
Winds: from the WNW (290 degrees) at 2 MPH (2 knots; 1.0 m/s)
Visibility: 6 or more miles (10+ km)
Ceiling: 3800 feet AGL
Clouds: overcast cloud deck at 3800 feet AGL
Weather: no significant weather observed at this time

METAR text: SCFA 160300Z 27002KT 9999 OVC037 20/13 Q1016 NOSIG
Conditions at: SCFA (ANTOFAGASTA/CERR, CL) observed 0300 UTC 16 February 2019
Temperature: 20.0°C (68°F)
Dewpoint: 13.0°C (55°F) [RH = 64%]
Pressure (altimeter): 30.00 inches Hg (1016.0 mb)
Winds: from the W (270 degrees) at 2 MPH (2 knots; 1.0 m/s)
Visibility: 6 or more miles (10+ km)
Ceiling: 3700 feet AGL
Clouds: overcast cloud deck at 3700 feet AGL
Weather: no significant weather observed at this time

METAR text: SCFA 160200Z 25003KT 9999 OVC037 20/14 Q1015 NOSIG
Conditions at: SCFA (ANTOFAGASTA/CERR, CL) observed 0200 UTC 16 February 2019
Temperature: 20.0°C (68°F)
Dewpoint: 14.0°C (57°F) [RH = 68%]
Pressure (altimeter): 29.97 inches Hg (1015.0 mb)
Winds: from the WSW (250 degrees) at 3 MPH (3 knots; 1.5 m/s)
Visibility: 6 or more miles (10+ km)
Ceiling: 3700 feet AGL
Clouds: overcast cloud deck at 3700 feet AGL
Weather: no significant weather observed at this time

METAR text: SCFA 160100Z 19004KT 9999 BKN040 20/14 Q1014 NOSIG
Conditions at: SCFA (ANTOFAGASTA/CERR, CL) observed 0100 UTC 16 February 2019
Temperature: 20.0°C (68°F)
Dewpoint: 14.0°C (57°F) [RH = 68%]
Pressure (altimeter): 29.94 inches Hg (1014.0 mb)
Winds: from the S (190 degrees) at 5 MPH (4 knots; 2.1 m/s)
Visibility: 6 or more miles (10+ km)
Ceiling: 4000 feet AGL
Clouds: broken clouds at 4000 feet AGL
Weather: no significant weather observed at this time

METAR text: SCFA 160000Z 18005KT 9999 SCT040 19/14 Q1014 NOSIG
Conditions at: SCFA (ANTOFAGASTA/CERR, CL) observed 0000 UTC 16 February 2019
Temperature: 19.0°C (66°F)
Dewpoint: 14.0°C (57°F) [RH = 73%]
Pressure (altimeter): 29.94 inches Hg (1014.0 mb)
Winds: from the S (180 degrees) at 6 MPH (5 knots; 2.6 m/s)
Visibility: 6 or more miles (10+ km)
Ceiling: at least 12,000 feet AGL
Clouds: scattered clouds at 4000 feet AGL
Weather: no significant weather observed at this time

METAR text: SCFA 152300Z 19007KT 9999 FEW020 SCT035 20/14 Q1013 NOSIG
Conditions at: SCFA (ANTOFAGASTA/CERR, CL) observed 2300 UTC 15 February 2019
Temperature: 20.0°C (68°F)
Dewpoint: 14.0°C (57°F) [RH = 68%]
Pressure (altimeter): 29.91 inches Hg (1013.0 mb)
Winds: from the S (190 degrees) at 8 MPH (7 knots; 3.6 m/s)
Visibility: 6 or more miles (10+ km)
Ceiling: at least 12,000 feet AGL
Clouds: few clouds at 2000 feet AGL
scattered clouds at 3500 feet AGL
Weather: no significant weather observed at this time

METAR text: SCFA 152200Z 20009KT 9999 FEW016 20/14 Q1012 NOSIG
Conditions at: SCFA (ANTOFAGASTA/CERR, CL) observed 2200 UTC 15 February 2019
Temperature: 20.0°C (68°F)
Dewpoint: 14.0°C (57°F) [RH = 68%]
Pressure (altimeter): 29.88 inches Hg (1012.0 mb)
Winds: from the SSW (200 degrees) at 10 MPH (9 knots; 4.6 m/s)
Visibility: 6 or more miles (10+ km)
Ceiling: at least 12,000 feet AGL
Clouds: few clouds at 1600 feet AGL
Weather: no significant weather observed at this time

METAR text: SCFA 152100Z 20008KT 170V230 9999 FEW025 21/14 Q1012 NOSIG
Conditions at: SCFA (ANTOFAGASTA/CERR, CL) observed 2100 UTC 15 February 2019
Temperature: 21.0°C (70°F)
Dewpoint: 14.0°C (57°F) [RH = 64%]
Pressure (altimeter): 29.88 inches Hg (1012.0 mb)
Winds: from the SSW (200 degrees) at 9 MPH (8 knots; 4.1 m/s)
Visibility: 6 or more miles (10+ km)
Ceiling: at least 12,000 feet AGL
Clouds: few clouds at 2500 feet AGL
Weather: no significant weather observed at this time

METAR text: SCFA 152000Z 19010KT 9999 FEW025 21/13 Q1013 NOSIG
Conditions at: SCFA (ANTOFAGASTA/CERR, CL) observed 2000 UTC 15 February 2019
Temperature: 21.0°C (70°F)
Dewpoint: 13.0°C (55°F) [RH = 60%]
Pressure (altimeter): 29.91 inches Hg (1013.0 mb)
Winds: from the S (190 degrees) at 12 MPH (10 knots; 5.1 m/s)
Visibility: 6 or more miles (10+ km)
Ceiling: at least 12,000 feet AGL
Clouds: few clouds at 2500 feet AGL
Weather: no significant weather observed at this time

METAR text: SCFA 151900Z 20011KT 9999 SCT030 21/14 Q1013 NOSIG
Conditions at: SCFA (ANTOFAGASTA/CERR, CL) observed 1900 UTC 15 February 2019
Temperature: 21.0°C (70°F)
Dewpoint: 14.0°C (57°F) [RH = 64%]
Pressure (altimeter): 29.91 inches Hg (1013.0 mb)
Winds: from the SSW (200 degrees) at 13 MPH (11 knots; 5.7 m/s)
Visibility: 6 or more miles (10+ km)
Ceiling: at least 12,000 feet AGL
Clouds: scattered clouds at 3000 feet AGL
Weather: no significant weather observed at this time

METAR text: SCFA 151800Z 19013KT 9999 SCT035 21/14 Q1013 NOSIG
Conditions at: SCFA (ANTOFAGASTA/CERR, CL) observed 1800 UTC 15 February 2019
Temperature: 21.0°C (70°F)
Dewpoint: 14.0°C (57°F) [RH = 64%]
Pressure (altimeter): 29.91 inches Hg (1013.0 mb)
Winds: from the S (190 degrees) at 15 MPH (13 knots; 6.7 m/s)
Visibility: 6 or more miles (10+ km)
Ceiling: at least 12,000 feet AGL
Clouds: scattered clouds at 3500 feet AGL
Weather: no significant weather observed at this time

METAR text: SCFA 151700Z 20011KT 160V240 9999 SCT035 21/14 Q1014 NOSIG
Conditions at: SCFA (ANTOFAGASTA/CERR, CL) observed 1700 UTC 15 February 2019
Temperature: 21.0°C (70°F)
Dewpoint: 14.0°C (57°F) [RH = 64%]
Pressure (altimeter): 29.94 inches Hg (1014.0 mb)
Winds: from the SSW (200 degrees) at 13 MPH (11 knots; 5.7 m/s)
Visibility: 6 or more miles (10+ km)
Ceiling: at least 12,000 feet AGL
Clouds: scattered clouds at 3500 feet AGL
Weather: no significant weather observed at this time

METAR text: SCFA 151600Z 19008KT 9999 BKN035 21/14 Q1014 NOSIG
Conditions at: SCFA (ANTOFAGASTA/CERR, CL) observed 1600 UTC 15 February 2019
Temperature: 21.0°C (70°F)
Dewpoint: 14.0°C (57°F) [RH = 64%]
Pressure (altimeter): 29.94 inches Hg (1014.0 mb)
Winds: from the S (190 degrees) at 9 MPH (8 knots; 4.1 m/s)
Visibility: 6 or more miles (10+ km)
Ceiling: 3500 feet AGL
Clouds: broken clouds at 3500 feet AGL
Weather: no significant weather observed at this time

METAR text: SCFA 151500Z 21007KT 170V240 9999 OVC029 20/14 Q1014 NOSIG
Conditions at: SCFA (ANTOFAGASTA/CERR, CL) observed 1500 UTC 15 February 2019
Temperature: 20.0°C (68°F)
Dewpoint: 14.0°C (57°F) [RH = 68%]
Pressure (altimeter): 29.94 inches Hg (1014.0 mb)
Winds: from the SSW (210 degrees) at 8 MPH (7 knots; 3.6 m/s)
Visibility: 6 or more miles (10+ km)
Ceiling: 2900 feet AGL
Clouds: overcast cloud deck at 2900 feet AGL
Weather: no significant weather observed at this time

METAR text: SCFA 151400Z 22004KT 180V250 9999 OVC029 20/14 Q1014 NOSIG
Conditions at: SCFA (ANTOFAGASTA/CERR, CL) observed 1400 UTC 15 February 2019
Temperature: 20.0°C (68°F)
Dewpoint: 14.0°C (57°F) [RH = 68%]
Pressure (altimeter): 29.94 inches Hg (1014.0 mb)
Winds: from the SW (220 degrees) at 5 MPH (4 knots; 2.1 m/s)
Visibility: 6 or more miles (10+ km)
Ceiling: 2900 feet AGL
Clouds: overcast cloud deck at 2900 feet AGL
Weather: no significant weather observed at this time

METAR text: SCFA 151300Z 17003KT 120V200 9999 FEW016 BKN035 19/14 Q1014NOSIG
Conditions at: SCFA (ANTOFAGASTA/CERR, CL) observed 1300 UTC 15 February 2019
Temperature: 19.0°C (66°F)
Dewpoint: 14.0°C (57°F) [RH = 73%]
Pressure (altimeter): missing
Winds: from the S (170 degrees) at 3 MPH (3 knots; 1.5 m/s)
Visibility: 6 or more miles (10+ km)
Ceiling: 3500 feet AGL
Clouds: few clouds at 1600 feet AGL
broken clouds at 3500 feet AGL
Weather: no significant weather observed at this time

METAR text: SCFA 151200Z 15003KT 9999 BKN033 18/14 Q1013 NOSIG
Conditions at: SCFA (ANTOFAGASTA/CERR, CL) observed 1200 UTC 15 February 2019
Temperature: 18.0°C (64°F)
Dewpoint: 14.0°C (57°F) [RH = 77%]
Pressure (altimeter): 29.91 inches Hg (1013.0 mb)
Winds: from the SSE (150 degrees) at 3 MPH (3 knots; 1.5 m/s)
Visibility: 6 or more miles (10+ km)
Ceiling: 3300 feet AGL
Clouds: broken clouds at 3300 feet AGL
Weather: no significant weather observed at this time

METAR text: SCFA 151100Z 09004KT 9999 FEW027 BKN034 17/12 Q1013 NOSIG
Conditions at: SCFA (ANTOFAGASTA/CERR, CL) observed 1100 UTC 15 February 2019
Temperature: 17.0°C (63°F)
Dewpoint: 12.0°C (54°F) [RH = 72%]
Pressure (altimeter): 29.91 inches Hg (1013.0 mb)
Winds: from the E (90 degrees) at 5 MPH (4 knots; 2.1 m/s)
Visibility: 6 or more miles (10+ km)
Ceiling: 3400 feet AGL
Clouds: few clouds at 2700 feet AGL
broken clouds at 3400 feet AGL
Weather: no significant weather observed at this time

METAR text: SCFA 151000Z 11002KT 9999 OVC032 18/13 Q1012 NOSIG
Conditions at: SCFA (ANTOFAGASTA/CERR, CL) observed 1000 UTC 15 February 2019
Temperature: 18.0°C (64°F)
Dewpoint: 13.0°C (55°F) [RH = 73%]
Pressure (altimeter): 29.88 inches Hg (1012.0 mb)
Winds: from the ESE (110 degrees) at 2 MPH (2 knots; 1.0 m/s)
Visibility: 6 or more miles (10+ km)
Ceiling: 3200 feet AGL
Clouds: overcast cloud deck at 3200 feet AGL
Weather: no significant weather observed at this time

METAR text: SCFA 150900Z 15002KT 9999 BKN029 18/13 Q1012 NOSIG
Conditions at: SCFA (ANTOFAGASTA/CERR, CL) observed 0900 UTC 15 February 2019
Temperature: 18.0°C (64°F)
Dewpoint: 13.0°C (55°F) [RH = 73%]
Pressure (altimeter): 29.88 inches Hg (1012.0 mb)
Winds: from the SSE (150 degrees) at 2 MPH (2 knots; 1.0 m/s)
Visibility: 6 or more miles (10+ km)
Ceiling: 2900 feet AGL
Clouds: broken clouds at 2900 feet AGL
Weather: no significant weather observed at this time

METAR text: SCFA 150800Z 22002KT 9999 OVC027 18/14 Q1011 NOSIG
Conditions at: SCFA (ANTOFAGASTA/CERR, CL) observed 0800 UTC 15 February 2019
Temperature: 18.0°C (64°F)
Dewpoint: 14.0°C (57°F) [RH = 77%]
Pressure (altimeter): 29.85 inches Hg (1011.0 mb)
Winds: from the SW (220 degrees) at 2 MPH (2 knots; 1.0 m/s)
Visibility: 6 or more miles (10+ km)
Ceiling: 2700 feet AGL
Clouds: overcast cloud deck at 2700 feet AGL
Weather: no significant weather observed at this time

METAR text: SCFA 150700Z 10003KT 9999 OVC029 17/13 Q1012 NOSIG
Conditions at: SCFA (ANTOFAGASTA/CERR, CL) observed 0700 UTC 15 February 2019
Temperature: 17.0°C (63°F)
Dewpoint: 13.0°C (55°F) [RH = 77%]
Pressure (altimeter): 29.88 inches Hg (1012.0 mb)
Winds: from the E (100 degrees) at 3 MPH (3 knots; 1.5 m/s)
Visibility: 6 or more miles (10+ km)
Ceiling: 2900 feet AGL
Clouds: overcast cloud deck at 2900 feet AGL
Weather: no significant weather observed at this time

METAR text: SCFA 150600Z 09003KT CAVOK 17/13 Q1013 NOSIG
Conditions at: SCFA (ANTOFAGASTA/CERR, CL) observed 0600 UTC 15 February 2019
Temperature: 17.0°C (63°F)
Dewpoint: 13.0°C (55°F) [RH = 77%]
Pressure (altimeter): 29.91 inches Hg (1013.0 mb)
Winds: from the E (90 degrees) at 3 MPH (3 knots; 1.5 m/s)
Visibility: 6 or more miles (10+ km)
Ceiling: ceiling and visibility are OK
Clouds: unknown
Weather: no significant weather observed at this time

METAR text: SCFA 150500Z 07003KT CAVOK 17/13 Q1013 NOSIG
Conditions at: SCFA (ANTOFAGASTA/CERR, CL) observed 0500 UTC 15 February 2019
Temperature: 17.0°C (63°F)
Dewpoint: 13.0°C (55°F) [RH = 77%]
Pressure (altimeter): 29.91 inches Hg (1013.0 mb)
Winds: from the ENE (70 degrees) at 3 MPH (3 knots; 1.5 m/s)
Visibility: 6 or more miles (10+ km)
Ceiling: ceiling and visibility are OK
Clouds: unknown
Weather: no significant weather observed at this time

METAR text: SCFA 150400Z 09002KT CAVOK 18/13 Q1013 NOSIG
Conditions at: SCFA (ANTOFAGASTA/CERR, CL) observed 0400 UTC 15 February 2019
Temperature: 18.0°C (64°F)
Dewpoint: 13.0°C (55°F) [RH = 73%]
Pressure (altimeter): 29.91 inches Hg (1013.0 mb)
Winds: from the E (90 degrees) at 2 MPH (2 knots; 1.0 m/s)
Visibility: 6 or more miles (10+ km)
Ceiling: ceiling and visibility are OK
Clouds: unknown
Weather: no significant weather observed at this time

METAR text: SCFA 150300Z 19006KT CAVOK 18/14 Q1013 NOSIG
Conditions at: SCFA (ANTOFAGASTA/CERR, CL) observed 0300 UTC 15 February 2019
Temperature: 18.0°C (64°F)
Dewpoint: 14.0°C (57°F) [RH = 77%]
Pressure (altimeter): 29.91 inches Hg (1013.0 mb)
Winds: from the S (190 degrees) at 7 MPH (6 knots; 3.1 m/s)
Visibility: 6 or more miles (10+ km)
Ceiling: ceiling and visibility are OK
Clouds: unknown
Weather: no significant weather observed at this time

METAR text: SCFA 150200Z 20006KT 9999 FEW017 18/14 Q1013 NOSIG
Conditions at: SCFA (ANTOFAGASTA/CERR, CL) observed 0200 UTC 15 February 2019
Temperature: 18.0°C (64°F)
Dewpoint: 14.0°C (57°F) [RH = 77%]
Pressure (altimeter): 29.91 inches Hg (1013.0 mb)
Winds: from the SSW (200 degrees) at 7 MPH (6 knots; 3.1 m/s)
Visibility: 6 or more miles (10+ km)
Ceiling: at least 12,000 feet AGL
Clouds: few clouds at 1700 feet AGL
Weather: no significant weather observed at this time

METAR text: SCFA 150100Z 20009KT 9999 FEW019 18/14 Q1012 NOSIG
Conditions at: SCFA (ANTOFAGASTA/CERR, CL) observed 0100 UTC 15 February 2019
Temperature: 18.0°C (64°F)
Dewpoint: 14.0°C (57°F) [RH = 77%]
Pressure (altimeter): 29.88 inches Hg (1012.0 mb)
Winds: from the SSW (200 degrees) at 10 MPH (9 knots; 4.6 m/s)
Visibility: 6 or more miles (10+ km)
Ceiling: at least 12,000 feet AGL
Clouds: few clouds at 1900 feet AGL
Weather: no significant weather observed at this time

METAR text: SCFA 150000Z 19011KT CAVOK 19/14 Q1011 NOSIG
Conditions at: SCFA (ANTOFAGASTA/CERR, CL) observed 0000 UTC 15 February 2019
Temperature: 19.0°C (66°F)
Dewpoint: 14.0°C (57°F) [RH = 73%]
Pressure (altimeter): 29.85 inches Hg (1011.0 mb)
Winds: from the S (190 degrees) at 13 MPH (11 knots; 5.7 m/s)
Visibility: 6 or more miles (10+ km)
Ceiling: ceiling and visibility are OK
Clouds: unknown
Weather: no significant weather observed at this time

METAR text: SCFA 142300Z 20013KT 9999 FEW022 19/13 Q1010 NOSIG
Conditions at: SCFA (ANTOFAGASTA/CERR, CL) observed 2300 UTC 14 February 2019
Temperature: 19.0°C (66°F)
Dewpoint: 13.0°C (55°F) [RH = 68%]
Pressure (altimeter): 29.82 inches Hg (1010.0 mb)
Winds: from the SSW (200 degrees) at 15 MPH (13 knots; 6.7 m/s)
Visibility: 6 or more miles (10+ km)
Ceiling: at least 12,000 feet AGL
Clouds: few clouds at 2200 feet AGL
Weather: no significant weather observed at this time

METAR text: SCFA 142200Z 20014KT 9999 FEW025 20/13 Q1010 NOSIG
Conditions at: SCFA (ANTOFAGASTA/CERR, CL) observed 2200 UTC 14 February 2019
Temperature: 20.0°C (68°F)
Dewpoint: 13.0°C (55°F) [RH = 64%]
Pressure (altimeter): 29.82 inches Hg (1010.0 mb)
Winds: from the SSW (200 degrees) at 16 MPH (14 knots; 7.2 m/s)
Visibility: 6 or more miles (10+ km)
Ceiling: at least 12,000 feet AGL
Clouds: few clouds at 2500 feet AGL
Weather: no significant weather observed at this time

METAR text: SCFA 142100Z 20015KT CAVOK 20/13 Q1010 NOSIG
Conditions at: SCFA (ANTOFAGASTA/CERR, CL) observed 2100 UTC 14 February 2019
Temperature: 20.0°C (68°F)
Dewpoint: 13.0°C (55°F) [RH = 64%]
Pressure (altimeter): 29.82 inches Hg (1010.0 mb)
Winds: from the SSW (200 degrees) at 17 MPH (15 knots; 7.7 m/s)
Visibility: 6 or more miles (10+ km)
Ceiling: ceiling and visibility are OK
Clouds: unknown
Weather: no significant weather observed at this time

METAR text: SCFA 142000Z 19015KT 9999 FEW030 21/12 Q1010 NOSIG
Conditions at: SCFA (ANTOFAGASTA/CERR, CL) observed 2000 UTC 14 February 2019
Temperature: 21.0°C (70°F)
Dewpoint: 12.0°C (54°F) [RH = 56%]
Pressure (altimeter): 29.82 inches Hg (1010.0 mb)
Winds: from the S (190 degrees) at 17 MPH (15 knots; 7.7 m/s)
Visibility: 6 or more miles (10+ km)
Ceiling: at least 12,000 feet AGL
Clouds: few clouds at 3000 feet AGL
Weather: no significant weather observed at this time

METAR text: SCFA 141900Z 19014KT 9999 FEW027 21/13 Q1011 NOSIG
Conditions at: SCFA (ANTOFAGASTA/CERR, CL) observed 1900 UTC 14 February 2019
Temperature: 21.0°C (70°F)
Dewpoint: 13.0°C (55°F) [RH = 60%]
Pressure (altimeter): 29.85 inches Hg (1011.0 mb)
Winds: from the S (190 degrees) at 16 MPH (14 knots; 7.2 m/s)
Visibility: 6 or more miles (10+ km)
Ceiling: at least 12,000 feet AGL
Clouds: few clouds at 2700 feet AGL
Weather: no significant weather observed at this time

METAR text: SCFA 141800Z 20014KT 9999 FEW018 21/12 Q1012 NOSIG
Conditions at: SCFA (ANTOFAGASTA/CERR, CL) observed 1800 UTC 14 February 2019
Temperature: 21.0°C (70°F)
Dewpoint: 12.0°C (54°F) [RH = 56%]
Pressure (altimeter): 29.88 inches Hg (1012.0 mb)
Winds: from the SSW (200 degrees) at 16 MPH (14 knots; 7.2 m/s)
Visibility: 6 or more miles (10+ km)
Ceiling: at least 12,000 feet AGL
Clouds: few clouds at 1800 feet AGL
Weather: no significant weather observed at this time

Forecast for: SCFA (ANTOFAGASTA/CERR, CL)
Text: TAF SCFA 160444Z 1606/1706 04004KT 9999 BKN040 TN19/1606Z TX22/1617Z
Forecast period: 0600 to 1300 UTC 16 February 2019
Forecast type: FROM: standard forecast or significant change
Winds: from the NE (40 degrees) at 5 MPH (4 knots; 2.1 m/s)
Visibility: 6 or more miles 10+ km)
Ceiling: 4000 feet AGL
Clouds: broken clouds at 4000 feet AGL
Weather: no significant weather forecast for this period
Text: BECMG 1613/1615 19004KT FEW040
Forecast period: 1300 to 1600 UTC 16 February 2019
Forecast type: BECOMING: Conditions expected to become as follows by 1500 UTC 16 February 2019
Winds: from the S (190 degrees) at 5 MPH (4 knots; 2.1 m/s)
Visibility: 6 or more miles 10+ km)
Ceiling: at least 12,000 feet AGL
Clouds: few clouds at 4000 feet AGL
Weather: no significant weather forecast for this period
Text: BECMG 1616/1618 21013KT FEW025
Forecast period: 1600 UTC 16 February 2019 to 0200 UTC 17 February 2019
Forecast type: BECOMING: Conditions expected to become as follows by 1800 UTC 16 February 2019
Winds: from the SSW (210 degrees) at 15 MPH (13 knots; 6.7 m/s)
Visibility: 6 or more miles 10+ km)
Ceiling: at least 12,000 feet AGL
Clouds: few clouds at 2500 feet AGL
Weather: no significant weather forecast for this period
Text: BECMG 1702/1704 18004KT CAVOK
Forecast period: 0200 to 0600 UTC 17 February 2019
Forecast type: BECOMING: Conditions expected to become as follows by 0400 UTC 17 February 2019
Winds: from the S (180 degrees) at 5 MPH (4 knots; 2.1 m/s)
Visibility: 6 or more miles 10+ km)
Ceiling: unknown
Clouds: missing
Weather: NSW  (no significant weather)